Time;durP1;ratioP1;P1;durP2;ratioP2;P2;SDS_P1;SDS_P2;PMS_P1;PMS_P2;Temp;Humidity;BMP_temperature;BMP_pressure;BME280_temperature;BME280_humidity;BME280_pressure;Samples;Min_cycle;Max_cycle;Signal;HPM_P1;HPM_P2
2023/01/31 00:00:48;;;;;;;18.17;2.40;;;4.20;99.90;;;;;;5084548;28;20055;-67
2023/01/31 00:03:14;;;;;;;12.67;2.17;;;4.20;99.90;;;;;;5084086;28;20096;-67
2023/01/31 00:05:39;;;;;;;18.73;2.43;;;4.20;99.90;;;;;;5082127;28;20043;-67
2023/01/31 00:08:05;;;;;;;9.90;1.43;;;4.10;99.90;;;;;;5084948;28;20452;-67
2023/01/31 00:10:31;;;;;;;16.53;1.77;;;4.10;99.90;;;;;;5076635;28;20170;-67
2023/01/31 00:12:57;;;;;;;9.63;1.83;;;4.10;99.90;;;;;;5080614;28;20063;-67
2023/01/31 00:15:22;;;;;;;13.63;3.03;;;4.00;99.90;;;;;;5085294;28;20482;-67
2023/01/31 00:17:48;;;;;;;10.63;1.93;;;4.10;99.90;;;;;;5085089;28;20810;-67
2023/01/31 00:20:14;;;;;;;8.20;1.60;;;4.00;99.90;;;;;;5084038;28;20041;-67
2023/01/31 00:22:39;;;;;;;8.57;1.47;;;4.00;99.90;;;;;;5087273;28;20051;-67
2023/01/31 00:25:05;;;;;;;10.30;1.77;;;3.90;99.90;;;;;;5078488;28;20097;-67
2023/01/31 00:27:31;;;;;;;8.90;1.75;;;3.90;99.90;;;;;;5089025;28;20127;-67
2023/01/31 00:29:56;;;;;;;8.10;1.63;;;3.90;99.90;;;;;;5089113;28;20044;-67
2023/01/31 00:32:25;;;;;;;18.80;1.90;;;3.90;99.90;;;;;;5086260;28;20115;-67
2023/01/31 00:34:53;;;;;;;12.60;2.45;;;3.90;99.90;;;;;;5085050;28;20113;-66
2023/01/31 00:37:20;;;;;;;11.48;1.98;;;3.90;99.90;;;;;;5088112;28;20193;-66
2023/01/31 00:39:46;;;;;;;;;;;3.80;99.90;;;;;;5086359;28;20044;-67
2023/01/31 00:42:12;;;;;;;13.23;1.38;;;3.80;99.90;;;;;;5085483;28;19973;-67
2023/01/31 00:44:40;;;;;;;9.23;1.47;;;3.80;99.90;;;;;;5087732;28;20040;-66
2023/01/31 00:47:06;;;;;;;9.52;2.22;;;3.80;99.90;;;;;;5088814;28;20456;-67
2023/01/31 00:49:32;;;;;;;9.93;1.60;;;3.80;99.90;;;;;;5090847;28;20111;-66
2023/01/31 00:51:57;;;;;;;9.17;1.77;;;3.80;99.90;;;;;;5092787;28;20039;-67
2023/01/31 00:54:23;;;;;;;6.53;2.23;;;3.80;99.90;;;;;;5087575;28;20355;-67
2023/01/31 00:56:49;;;;;;;10.77;1.37;;;3.80;99.90;;;;;;5086340;28;20032;-66
2023/01/31 00:59:14;;;;;;;6.37;1.37;;;3.80;99.90;;;;;;5089500;28;20551;-67
2023/01/31 01:01:40;;;;;;;9.70;1.70;;;3.70;99.90;;;;;;5085131;28;20063;-66
2023/01/31 01:04:06;;;;;;;7.17;1.53;;;3.80;99.90;;;;;;5086454;28;20043;-67
2023/01/31 01:06:32;;;;;;;10.43;1.23;;;3.70;99.90;;;;;;5087110;28;20093;-67
2023/01/31 01:09:00;;;;;;;5.00;1.48;;;3.80;99.90;;;;;;5086870;28;20059;-66
2023/01/31 01:11:28;;;;;;;8.45;1.33;;;3.70;99.90;;;;;;5074976;28;20666;-67
2023/01/31 01:13:55;;;;;;;5.93;1.45;;;3.70;99.90;;;;;;5082949;28;20097;-67
2023/01/31 01:16:26;;;;;;;8.68;1.27;;;3.70;99.90;;;;;;5085450;28;20561;-67
2023/01/31 01:18:53;;;;;;;9.80;1.92;;;3.70;99.90;;;;;;5087771;28;20051;-67
2023/01/31 01:21:30;;;;;;;6.05;1.58;;;3.70;99.90;;;;;;5081345;28;20071;-67
2023/01/31 01:23:58;;;;;;;8.32;1.48;;;3.70;99.90;;;;;;5088350;28;20148;-67
2023/01/31 01:26:27;;;;;;;11.18;1.88;;;3.70;99.90;;;;;;5085325;28;20555;-67
2023/01/31 01:28:54;;;;;;;3.13;1.40;;;3.70;99.90;;;;;;5086843;28;20058;-67
2023/01/31 01:31:20;;;;;;;7.93;1.45;;;3.70;99.90;;;;;;5085148;28;20036;-67
2023/01/31 01:33:48;;;;;;;6.82;1.40;;;3.70;99.90;;;;;;5088772;22;20477;-72
2023/01/31 01:36:16;;;;;;;8.57;1.30;;;3.70;99.90;;;;;;5067210;28;20051;-72
2023/01/31 01:38:43;;;;;;;7.35;1.88;;;3.70;99.90;;;;;;5067178;28;20049;-72
2023/01/31 01:41:10;;;;;;;10.77;1.70;;;3.70;99.90;;;;;;5061418;28;20055;-72
2023/01/31 01:43:46;;;;;;;5.35;1.20;;;3.80;99.90;;;;;;5063198;28;20043;-72
2023/01/31 01:46:26;;;;;;;10.88;1.60;;;3.80;99.90;;;;;;5063314;28;20497;-72
2023/01/31 01:49:27;;;;;;;5.45;1.52;;;3.80;99.90;;;;;;5071650;28;20028;-72
2023/01/31 01:51:56;;;;;;;14.82;2.20;;;3.80;99.90;;;;;;5068732;28;20515;-72
2023/01/31 01:54:27;;;;;;;13.38;2.00;;;3.80;99.90;;;;;;5069321;28;20106;-72
2023/01/31 01:56:57;;;;;;;5.85;1.17;;;3.90;99.90;;;;;;5068933;28;20037;-72
2023/01/31 01:59:33;;;;;;;6.50;1.05;;;3.90;99.90;;;;;;5066925;28;20131;-72
2023/01/31 02:02:00;;;;;;;7.00;2.05;;;4.00;99.90;;;;;;5059874;28;20068;-72
2023/01/31 02:04:29;;;;;;;;;;;4.00;99.90;;;;;;5068808;28;20044;-72
2023/01/31 02:06:55;;;;;;;8.90;1.35;;;4.10;99.90;;;;;;5059839;28;20396;-72
2023/01/31 02:09:41;;;;;;;7.53;1.20;;;4.10;99.90;;;;;;5065480;28;20064;-72
2023/01/31 02:12:08;;;;;;;8.43;1.05;;;4.10;99.90;;;;;;5073960;28;20315;-72
2023/01/31 02:14:35;;;;;;;8.60;1.63;;;4.10;99.90;;;;;;5065641;28;20122;-72
2023/01/31 02:17:01;;;;;;;;;;;4.10;99.90;;;;;;5066512;28;20040;-72
2023/01/31 02:20:00;;;;;;;8.25;1.98;;;4.10;99.90;;;;;;5069607;28;19995;-72
2023/01/31 02:22:29;;;;;;;4.32;1.02;;;4.10;99.90;;;;;;5063315;28;20071;-72
2023/01/31 02:25:30;;;;;;;14.63;1.30;;;4.20;99.90;;;;;;5062874;28;20033;-72
2023/01/31 02:28:34;;;;;;;8.88;1.80;;;4.20;99.90;;;;;;5048307;28;20461;-72
2023/01/31 02:31:06;;;;;;;8.80;1.33;;;4.20;99.90;;;;;;5056188;28;20048;-72
2023/01/31 02:33:56;;;;;;;8.00;1.23;;;4.20;99.90;;;;;;5067723;28;20393;-72
2023/01/31 02:36:52;;;;;;;8.02;1.35;;;4.30;99.90;;;;;;5071224;28;20036;-71
2023/01/31 02:39:20;;;;;;;8.13;2.20;;;4.30;99.90;;;;;;5054378;28;20486;-72
2023/01/31 02:42:35;;;;;;;4.45;1.25;;;4.30;99.90;;;;;;5069555;28;20046;-72
2023/01/31 02:45:08;;;;;;;7.80;1.42;;;4.40;99.90;;;;;;4980315;28;20109;-72
2023/01/31 02:47:40;;;;;;;8.27;1.63;;;4.40;99.90;;;;;;5068968;28;20079;-71
2023/01/31 02:50:24;;;;;;;9.05;1.33;;;4.40;99.90;;;;;;5075962;28;20195;-72
2023/01/31 02:52:56;;;;;;;7.35;1.20;;;4.50;99.90;;;;;;5062226;28;20129;-72
2023/01/31 02:58:11;;;;;;;;;;;4.50;99.90;;;;;;5064625;28;20406;-72
2023/01/31 03:00:40;;;;;;;8.70;1.45;;;4.60;99.90;;;;;;5063307;28;19920;-72
2023/01/31 03:03:21;;;;;;;7.78;1.20;;;4.60;99.90;;;;;;5072646;28;20040;-72
2023/01/31 03:06:21;;;;;;;8.27;0.90;;;4.70;99.90;;;;;;5068119;28;20097;-72
2023/01/31 03:09:09;;;;;;;5.70;1.38;;;4.70;99.90;;;;;;5060299;28;20647;-72
2023/01/31 03:11:49;;;;;;;7.72;1.58;;;4.70;99.90;;;;;;5057365;28;20449;-72
2023/01/31 03:14:26;;;;;;;12.55;1.70;;;4.70;99.90;;;;;;5056702;28;20052;-72
2023/01/31 03:17:33;;;;;;;11.55;1.80;;;4.80;99.90;;;;;;5067857;28;20036;-72
2023/01/31 03:20:07;;;;;;;6.60;1.15;;;4.80;99.90;;;;;;5061287;28;20049;-72
2023/01/31 03:22:55;;;;;;;9.57;1.38;;;4.80;99.90;;;;;;5055653;28;20032;-72
2023/01/31 03:25:24;;;;;;;12.48;2.30;;;4.80;99.90;;;;;;5062495;28;20465;-72
2023/01/31 03:27:55;;;;;;;10.65;1.25;;;4.90;99.90;;;;;;5065605;28;20099;-72
2023/01/31 03:30:56;;;;;;;6.70;1.30;;;4.80;99.90;;;;;;5060849;28;20037;-71
2023/01/31 03:33:26;;;;;;;12.15;2.38;;;4.90;99.90;;;;;;5062833;28;20127;-71
2023/01/31 03:35:58;;;;;;;8.75;1.92;;;4.90;99.90;;;;;;5069117;28;20563;-71
2023/01/31 03:38:30;;;;;;;4.78;0.95;;;4.90;99.90;;;;;;5056386;28;20057;-72
2023/01/31 03:41:22;;;;;;;4.35;1.25;;;4.90;99.90;;;;;;5063084;28;20051;-72
2023/01/31 03:43:57;;;;;;;10.82;1.70;;;4.90;99.90;;;;;;5041834;28;20126;-72
2023/01/31 03:46:43;;;;;;;9.15;1.75;;;4.90;99.90;;;;;;5064133;28;20036;-72
2023/01/31 03:49:12;;;;;;;3.15;1.35;;;4.90;99.90;;;;;;5064964;28;20043;-72
2023/01/31 03:51:43;;;;;;;17.27;1.70;;;5.00;99.90;;;;;;5070001;28;20044;-71
2023/01/31 03:54:17;;;;;;;10.70;1.90;;;5.00;99.90;;;;;;5060453;28;20036;-71
2023/01/31 03:56:52;;;;;;;10.10;1.13;;;5.00;99.90;;;;;;5065748;28;20071;-72
2023/01/31 03:59:24;;;;;;;7.78;1.55;;;5.00;99.90;;;;;;5072804;28;20038;-72
2023/01/31 04:01:54;;;;;;;13.05;2.50;;;5.00;99.90;;;;;;5067234;28;20241;-71
2023/01/31 04:04:24;;;;;;;10.68;2.03;;;5.10;99.90;;;;;;5059843;28;20090;-72
2023/01/31 04:06:50;;;;;;;10.20;1.75;;;5.10;99.90;;;;;;5066209;28;20099;-71
2023/01/31 04:09:16;;;;;;;17.23;2.43;;;5.10;99.90;;;;;;5065886;28;20506;-72
2023/01/31 04:11:47;;;;;;;18.75;2.15;;;5.20;99.90;;;;;;5061417;28;20078;-72
2023/01/31 04:14:13;;;;;;;10.75;2.75;;;5.20;99.90;;;;;;5062877;28;20044;-72
2023/01/31 04:16:38;;;;;;;18.67;2.90;;;5.20;99.90;;;;;;5065986;28;20082;-71
2023/01/31 04:19:04;;;;;;;7.53;2.27;;;5.30;99.90;;;;;;5067948;28;20100;-72
2023/01/31 04:21:30;;;;;;;12.03;2.23;;;5.30;99.90;;;;;;5066923;28;20040;-72
2023/01/31 04:23:55;;;;;;;17.30;3.07;;;5.30;99.90;;;;;;5069959;28;20036;-72
2023/01/31 04:26:21;;;;;;;18.40;2.53;;;5.40;99.90;;;;;;5036853;28;20055;-72
2023/01/31 04:28:47;;;;;;;18.37;2.47;;;5.40;99.90;;;;;;5064504;28;20037;-72
2023/01/31 04:31:13;;;;;;;14.10;2.47;;;5.40;99.90;;;;;;5061834;28;20422;-72
2023/01/31 04:33:38;;;;;;;8.02;2.47;;;5.40;99.90;;;;;;5061723;28;20044;-72
2023/01/31 04:36:04;;;;;;;15.03;2.10;;;5.40;99.90;;;;;;5073570;28;20143;-72
2023/01/31 04:38:30;;;;;;;14.68;3.00;;;5.40;99.90;;;;;;5066150;28;20202;-72
2023/01/31 04:40:56;;;;;;;10.87;2.07;;;5.40;99.90;;;;;;5066756;28;20498;-72
2023/01/31 04:43:21;;;;;;;14.23;3.27;;;5.50;99.90;;;;;;5064161;28;20083;-72
2023/01/31 04:45:47;;;;;;;12.10;2.40;;;5.50;99.90;;;;;;5071192;28;20100;-72
2023/01/31 04:48:12;;;;;;;11.80;2.20;;;5.50;99.90;;;;;;5061100;28;20462;-72
2023/01/31 04:50:38;;;;;;;14.33;2.47;;;5.50;99.90;;;;;;5062637;28;20060;-72
2023/01/31 04:53:04;;;;;;;17.37;2.27;;;5.50;99.90;;;;;;5065769;28;20075;-72
2023/01/31 04:55:29;;;;;;;11.43;1.67;;;5.60;99.90;;;;;;5062655;28;20043;-71
2023/01/31 04:57:55;;;;;;;22.60;3.13;;;5.50;99.90;;;;;;5072401;28;20051;-72
2023/01/31 05:00:21;;;;;;;8.93;2.00;;;5.50;99.90;;;;;;5072800;28;20113;-72
2023/01/31 05:02:48;;;;;;;13.83;2.43;;;5.60;99.90;;;;;;5063990;28;20063;-71
2023/01/31 05:05:14;;;;;;;11.95;2.38;;;5.60;99.90;;;;;;5071027;28;20063;-72
2023/01/31 05:07:40;;;;;;;17.70;2.43;;;5.50;99.90;;;;;;5065388;28;20036;-72
2023/01/31 05:10:06;;;;;;;11.80;2.53;;;5.50;99.90;;;;;;5069052;28;20397;-72
2023/01/31 05:12:31;;;;;;;10.25;2.50;;;5.50;99.90;;;;;;5059519;28;20033;-72
2023/01/31 05:14:57;;;;;;;14.57;2.87;;;5.50;99.90;;;;;;5071024;28;20051;-71
2023/01/31 05:17:28;;;;;;;14.13;2.70;;;5.50;99.90;;;;;;5078804;28;20115;-70
2023/01/31 05:19:57;;;;;;;17.55;3.40;;;5.50;99.90;;;;;;5063582;28;20123;-71
2023/01/31 05:22:24;;;;;;;19.42;2.85;;;5.50;99.90;;;;;;5075821;28;20044;-71
2023/01/31 05:24:50;;;;;;;10.57;2.53;;;5.50;99.90;;;;;;5071591;28;20036;-71
2023/01/31 05:27:16;;;;;;;10.52;3.20;;;5.50;99.90;;;;;;5062756;28;20421;-71
2023/01/31 05:29:43;;;;;;;10.63;2.30;;;5.40;99.90;;;;;;5074549;28;20138;-71
2023/01/31 05:32:08;;;;;;;12.77;2.05;;;5.50;99.90;;;;;;5064405;28;20486;-71
2023/01/31 05:34:34;;;;;;;11.17;2.37;;;5.50;99.90;;;;;;5066513;28;20109;-71
2023/01/31 05:37:00;;;;;;;11.63;2.13;;;5.50;99.90;;;;;;5068683;28;21006;-71
2023/01/31 05:39:27;;;;;;;9.07;2.00;;;5.50;99.90;;;;;;5067676;28;20301;-71
2023/01/31 05:41:53;;;;;;;11.57;2.35;;;5.50;99.90;;;;;;5061650;28;20512;-71
2023/01/31 05:44:19;;;;;;;14.40;3.28;;;5.40;99.90;;;;;;5059175;28;20040;-71
2023/01/31 05:46:44;;;;;;;11.60;2.05;;;5.50;99.90;;;;;;5068445;28;20053;-71
2023/01/31 05:49:11;;;;;;;20.30;2.10;;;5.50;99.90;;;;;;5068518;28;20037;-71
2023/01/31 05:51:37;;;;;;;14.68;2.25;;;5.50;99.90;;;;;;5065512;28;20032;-71
2023/01/31 05:54:03;;;;;;;14.68;3.20;;;5.50;99.90;;;;;;5053441;28;20045;-71
2023/01/31 05:56:29;;;;;;;9.07;2.30;;;5.40;99.90;;;;;;5068951;28;20048;-71
2023/01/31 05:58:55;;;;;;;10.33;2.57;;;5.50;99.90;;;;;;5067340;28;20040;-71
2023/01/31 06:01:23;;;;;;;10.17;2.63;;;5.50;99.90;;;;;;5064852;28;20654;-71
2023/01/31 06:03:49;;;;;;;22.70;3.50;;;5.50;99.90;;;;;;5066274;28;20048;-71
2023/01/31 06:06:15;;;;;;;7.57;2.03;;;5.50;99.90;;;;;;5067395;28;20516;-71
2023/01/31 06:08:41;;;;;;;16.33;2.55;;;5.60;99.90;;;;;;5073599;28;20037;-71
2023/01/31 06:11:10;;;;;;;16.77;2.50;;;5.60;99.90;;;;;;5067864;28;20041;-71
2023/01/31 06:13:36;;;;;;;14.63;2.22;;;5.60;99.90;;;;;;5066808;28;20033;-71
2023/01/31 06:16:02;;;;;;;12.82;2.30;;;5.70;99.90;;;;;;5060549;28;20537;-71
2023/01/31 06:18:28;;;;;;;16.10;3.33;;;5.70;99.90;;;;;;5056310;28;20044;-71
2023/01/31 06:20:53;;;;;;;15.50;3.70;;;5.70;99.90;;;;;;5071045;28;20044;-71
2023/01/31 06:23:19;;;;;;;13.17;2.03;;;5.70;99.90;;;;;;5067350;28;20115;-71
2023/01/31 06:25:50;;;;;;;12.67;3.47;;;5.80;99.90;;;;;;5060644;28;20645;-71
2023/01/31 06:28:16;;;;;;;17.73;2.53;;;5.80;99.90;;;;;;5069074;28;20509;-71
2023/01/31 06:30:42;;;;;;;12.27;3.80;;;5.80;99.90;;;;;;5068552;28;20041;-71
2023/01/31 06:33:08;;;;;;;13.15;3.20;;;5.80;99.90;;;;;;5073885;28;20089;-71
2023/01/31 06:35:35;;;;;;;15.82;2.85;;;5.80;99.90;;;;;;5071829;28;20207;-71
2023/01/31 06:38:00;;;;;;;19.52;2.28;;;5.90;99.90;;;;;;5065972;28;20048;-71
2023/01/31 06:40:26;;;;;;;12.40;2.37;;;5.80;99.90;;;;;;5067645;28;20247;-71
2023/01/31 06:42:51;;;;;;;12.53;2.50;;;5.80;99.90;;;;;;5067244;28;20206;-76
2023/01/31 06:45:17;;;;;;;14.70;2.40;;;5.90;99.90;;;;;;5065643;28;20036;-71
2023/01/31 06:47:46;;;;;;;17.20;2.77;;;5.90;99.90;;;;;;5055241;28;20063;-73
2023/01/31 06:50:12;;;;;;;12.10;3.20;;;5.90;99.90;;;;;;5073706;28;20052;-74
2023/01/31 06:52:39;;;;;;;12.40;2.42;;;5.80;99.90;;;;;;5069363;28;20508;-76
2023/01/31 06:55:05;;;;;;;16.10;2.83;;;5.90;99.90;;;;;;5069011;28;20044;-75
2023/01/31 06:57:30;;;;;;;14.02;2.75;;;5.90;99.90;;;;;;5070891;28;20040;-71
2023/01/31 06:59:56;;;;;;;13.67;2.00;;;5.90;99.90;;;;;;5068736;28;20040;-71
2023/01/31 07:02:22;;;;;;;6.97;2.17;;;5.90;99.90;;;;;;5061132;28;20629;-71
2023/01/31 07:04:47;;;;;;;8.57;1.97;;;5.90;99.90;;;;;;5067360;28;20043;-71
2023/01/31 07:07:13;;;;;;;10.10;2.13;;;5.90;99.90;;;;;;5062615;28;20037;-71
2023/01/31 07:09:39;;;;;;;9.57;1.87;;;5.90;99.90;;;;;;5064069;28;20548;-71
2023/01/31 07:12:04;;;;;;;17.60;3.03;;;5.90;99.90;;;;;;5063785;28;20127;-71
2023/01/31 07:14:30;;;;;;;10.97;1.63;;;6.00;99.90;;;;;;5067418;28;20417;-71
2023/01/31 07:16:55;;;;;;;10.20;2.20;;;6.00;99.90;;;;;;5068200;28;20078;-72
2023/01/31 07:19:21;;;;;;;14.30;2.03;;;5.90;99.90;;;;;;5068428;28;20049;-72
2023/01/31 07:21:48;;;;;;;6.43;1.63;;;6.00;99.90;;;;;;5069935;28;20066;-72
2023/01/31 07:24:14;;;;;;;8.25;1.80;;;6.00;99.90;;;;;;5065189;28;20044;-72
2023/01/31 07:26:40;;;;;;;;;;;6.00;99.90;;;;;;5064132;28;20494;-72
2023/01/31 07:29:06;;;;;;;15.18;1.98;;;6.00;99.90;;;;;;5062963;28;19928;-71
2023/01/31 07:31:32;;;;;;;13.00;2.07;;;5.90;99.90;;;;;;5062537;28;20102;-72
2023/01/31 07:33:58;;;;;;;11.43;1.58;;;5.90;99.90;;;;;;5088453;22;20298;-68
2023/01/31 07:36:25;;;;;;;10.68;1.15;;;6.00;99.90;;;;;;5067923;28;20060;-69
2023/01/31 07:38:55;;;;;;;8.88;1.90;;;6.00;99.90;;;;;;5078887;28;20417;-69
2023/01/31 07:41:25;;;;;;;9.75;1.52;;;6.00;99.90;;;;;;5081306;28;20525;-69
2023/01/31 07:43:51;;;;;;;8.10;1.17;;;6.00;99.90;;;;;;5084984;28;20036;-69
2023/01/31 07:46:17;;;;;;;8.23;1.67;;;6.00;99.90;;;;;;5084406;28;20123;-68
2023/01/31 07:48:43;;;;;;;4.40;1.30;;;6.00;99.90;;;;;;5094465;28;20047;-69
2023/01/31 07:51:09;;;;;;;10.00;1.60;;;6.00;99.90;;;;;;5086454;28;20036;-69
2023/01/31 07:53:40;;;;;;;10.30;1.60;;;6.00;99.90;;;;;;5087715;28;20167;-69
2023/01/31 07:56:06;;;;;;;4.53;1.00;;;6.00;99.90;;;;;;5082051;28;20477;-69
2023/01/31 07:58:35;;;;;;;8.87;1.60;;;6.00;99.90;;;;;;5090263;28;20115;-69
2023/01/31 08:03:47;;;;;;;13.57;1.65;;;6.00;99.90;;;;;;5090053;28;20231;-69
2023/01/31 08:06:12;;;;;;;8.27;1.70;;;6.10;99.90;;;;;;5088607;28;20044;-69
2023/01/31 08:08:39;;;;;;;5.60;1.23;;;6.10;99.90;;;;;;5091594;28;20328;-69
2023/01/31 08:11:05;;;;;;;9.10;2.03;;;6.10;99.90;;;;;;5080219;28;20051;-69
2023/01/31 08:13:35;;;;;;;11.47;2.13;;;6.10;99.90;;;;;;5083200;28;20381;-69
2023/01/31 08:16:02;;;;;;;21.23;2.22;;;6.10;99.90;;;;;;5084956;28;20040;-69
2023/01/31 08:18:27;;;;;;;7.18;1.58;;;6.20;99.90;;;;;;5088897;28;20040;-69
2023/01/31 08:20:53;;;;;;;13.73;1.33;;;6.20;99.90;;;;;;5086264;28;20036;-69
2023/01/31 08:23:19;;;;;;;12.87;1.60;;;6.20;99.90;;;;;;5089592;28;20043;-69
2023/01/31 08:25:44;;;;;;;12.53;3.33;;;6.20;99.90;;;;;;5085588;28;20032;-69
2023/01/31 08:28:10;;;;;;;7.37;1.73;;;6.30;99.90;;;;;;5088333;28;20040;-69
2023/01/31 08:30:43;;;;;;;8.87;1.47;;;6.30;99.90;;;;;;5089021;28;20127;-69
2023/01/31 08:33:10;;;;;;;6.97;1.30;;;6.30;99.90;;;;;;5085684;28;20199;-69
2023/01/31 08:35:36;;;;;;;12.77;2.38;;;6.30;99.90;;;;;;5087173;28;20043;-69
2023/01/31 08:38:03;;;;;;;10.40;2.10;;;6.30;99.90;;;;;;5082265;28;20467;-69
2023/01/31 08:40:29;;;;;;;10.15;1.45;;;6.30;99.90;;;;;;5075733;28;20055;-69
2023/01/31 08:42:56;;;;;;;11.40;2.35;;;6.30;99.90;;;;;;5091657;28;20493;-69
2023/01/31 08:45:22;;;;;;;8.00;2.47;;;6.30;99.90;;;;;;5096283;28;20067;-69
2023/01/31 08:47:51;;;;;;;17.35;3.22;;;6.30;99.90;;;;;;5090098;28;20111;-69
2023/01/31 08:50:17;;;;;;;15.80;2.58;;;6.30;99.90;;;;;;5096948;28;20062;-69
2023/01/31 08:52:42;;;;;;;8.83;1.27;;;6.40;99.90;;;;;;5088261;28;20039;-69
2023/01/31 08:55:12;;;;;;;14.57;2.33;;;6.40;99.90;;;;;;5097907;28;20466;-69
2023/01/31 08:57:42;;;;;;;12.45;2.03;;;6.40;99.90;;;;;;5090772;28;20521;-69
2023/01/31 09:00:09;;;;;;;11.88;1.70;;;6.40;99.90;;;;;;5090988;28;20039;-69
2023/01/31 09:02:34;;;;;;;11.52;1.95;;;6.40;99.90;;;;;;5086684;28;20036;-69
2023/01/31 09:05:00;;;;;;;10.17;2.80;;;6.50;99.90;;;;;;5096742;28;20070;-69
2023/01/31 09:07:26;;;;;;;12.13;1.67;;;6.50;99.90;;;;;;5095274;28;20044;-69
2023/01/31 09:09:51;;;;;;;15.83;1.57;;;6.50;99.90;;;;;;5085343;28;20071;-69
2023/01/31 09:12:17;;;;;;;13.43;2.70;;;6.50;99.90;;;;;;5070119;28;20464;-69
2023/01/31 09:14:43;;;;;;;12.97;1.70;;;6.60;99.90;;;;;;5091536;28;20035;-69
2023/01/31 09:17:09;;;;;;;15.53;2.70;;;6.60;99.90;;;;;;5086639;28;20389;-69
2023/01/31 09:19:35;;;;;;;15.35;1.83;;;6.60;99.90;;;;;;5093120;28;20501;-69
2023/01/31 09:22:01;;;;;;;8.38;2.15;;;6.70;99.90;;;;;;5086879;28;20358;-69
2023/01/31 09:24:27;;;;;;;10.10;2.60;;;6.70;99.90;;;;;;5087021;28;20040;-69
2023/01/31 09:26:54;;;;;;;8.83;1.80;;;6.80;99.90;;;;;;5084717;28;20040;-69
2023/01/31 09:29:19;;;;;;;22.45;2.15;;;6.80;99.90;;;;;;5090631;28;20070;-69
2023/01/31 09:31:45;;;;;;;13.10;2.23;;;6.80;99.90;;;;;;5086807;28;20067;-69
2023/01/31 09:34:12;;;;;;;14.10;1.97;;;6.80;99.90;;;;;;5086687;28;20055;-69
2023/01/31 09:36:38;;;;;;;12.43;1.80;;;6.80;99.90;;;;;;5089538;28;20201;-69
2023/01/31 09:39:03;;;;;;;8.20;2.23;;;6.80;99.90;;;;;;5088582;28;20044;-69
2023/01/31 09:41:44;;;;;;;11.33;2.27;;;6.90;99.90;;;;;;5086128;28;20040;-69
2023/01/31 09:44:28;;;;;;;10.52;2.40;;;6.90;99.90;;;;;;5083682;28;20378;-69
2023/01/31 09:47:05;;;;;;;13.32;2.15;;;6.90;99.90;;;;;;5083384;28;20146;-69
2023/01/31 09:49:41;;;;;;;15.00;2.20;;;6.90;99.90;;;;;;5088897;28;20138;-69
2023/01/31 09:52:09;;;;;;;13.25;2.40;;;6.90;99.90;;;;;;5078634;28;20443;-69
2023/01/31 09:54:38;;;;;;;13.65;2.20;;;6.90;99.90;;;;;;5088051;28;20252;-69
2023/01/31 09:57:28;;;;;;;11.63;1.75;;;6.90;99.90;;;;;;5089490;28;20413;-69
2023/01/31 10:00:35;;;;;;;13.07;2.13;;;6.90;99.90;;;;;;5086241;28;20052;-69
2023/01/31 10:03:38;;;;;;;14.40;2.42;;;6.90;99.90;;;;;;5085487;28;20044;-69
2023/01/31 10:06:24;;;;;;;11.73;1.88;;;6.90;99.90;;;;;;5081978;28;20409;-69
2023/01/31 10:09:18;;;;;;;10.05;2.20;;;6.90;99.90;;;;;;5090377;28;20036;-69
2023/01/31 10:11:53;;;;;;;14.18;3.83;;;6.90;99.90;;;;;;5083902;28;20075;-69
2023/01/31 10:14:46;;;;;;;17.77;2.08;;;6.90;99.90;;;;;;5088288;28;20044;-69
2023/01/31 10:17:26;;;;;;;16.98;2.03;;;6.90;99.90;;;;;;5063852;28;20038;-68
2023/01/31 10:19:58;;;;;;;8.70;3.35;;;6.90;99.90;;;;;;5086521;28;20044;-69
2023/01/31 10:22:27;;;;;;;13.02;2.33;;;6.90;99.90;;;;;;5092644;28;20113;-69
2023/01/31 10:25:18;;;;;;;9.18;2.38;;;6.90;99.90;;;;;;5083338;27;20039;-69
2023/01/31 10:27:56;;;;;;;12.73;2.55;;;7.00;99.90;;;;;;5090385;28;20073;-69
2023/01/31 10:30:27;;;;;;;11.30;2.30;;;7.00;99.90;;;;;;5082897;28;20040;-69
2023/01/31 10:33:16;;;;;;;14.65;2.10;;;7.00;99.90;;;;;;5084610;28;20043;-69
2023/01/31 10:35:44;;;;;;;9.52;2.63;;;7.00;99.90;;;;;;5091494;28;20649;-69
2023/01/31 10:38:21;;;;;;;7.63;1.50;;;7.00;99.90;;;;;;5080408;28;20044;-69
2023/01/31 10:40:57;;;;;;;12.65;1.58;;;7.00;99.90;;;;;;5081150;28;20047;-68
2023/01/31 10:43:48;;;;;;;9.70;3.08;;;7.00;99.90;;;;;;5086570;28;20036;-69
2023/01/31 10:46:14;;;;;;;8.15;2.63;;;7.10;99.90;;;;;;5074409;28;20341;-69
2023/01/31 10:48:42;;;;;;;8.38;1.98;;;7.10;99.90;;;;;;5094222;28;20040;-68
2023/01/31 10:51:25;;;;;;;10.00;1.67;;;7.10;99.90;;;;;;5086659;28;20032;-69
2023/01/31 10:53:54;;;;;;;14.98;1.65;;;7.10;99.90;;;;;;5084399;28;20086;-69
2023/01/31 10:56:34;;;;;;;10.52;1.95;;;7.10;99.90;;;;;;5086014;28;20135;-68
2023/01/31 10:59:05;;;;;;;10.23;1.83;;;7.10;99.90;;;;;;5066418;28;20042;-69
2023/01/31 11:01:32;;;;;;;10.85;2.30;;;7.10;99.90;;;;;;5090597;28;20036;-69
2023/01/31 11:04:20;;;;;;;13.00;2.05;;;7.10;99.90;;;;;;5089518;28;20043;-69
2023/01/31 11:06:46;;;;;;;9.65;2.25;;;7.10;99.90;;;;;;5089038;28;20103;-69
2023/01/31 11:09:13;;;;;;;13.53;2.27;;;7.20;99.90;;;;;;5086314;28;20040;-68
2023/01/31 11:11:59;;;;;;;11.38;2.42;;;7.20;99.90;;;;;;5064150;28;20043;-68
2023/01/31 11:14:25;;;;;;;12.32;2.17;;;7.20;99.90;;;;;;5088712;28;20032;-68
2023/01/31 11:17:01;;;;;;;14.73;2.20;;;7.20;99.90;;;;;;5087035;28;20058;-68
2023/01/31 11:19:36;;;;;;;10.33;2.33;;;7.30;99.90;;;;;;5076852;28;20572;-68
2023/01/31 11:22:03;;;;;;;13.75;2.17;;;7.30;99.90;;;;;;5080836;28;20801;-68
2023/01/31 11:24:32;;;;;;;11.80;1.88;;;7.30;99.90;;;;;;5081986;28;20144;-68
2023/01/31 11:27:23;;;;;;;13.77;2.38;;;7.40;99.90;;;;;;5091501;28;20131;-68
2023/01/31 11:29:50;;;;;;;8.82;2.00;;;7.40;99.90;;;;;;5090257;28;20497;-68
2023/01/31 11:32:20;;;;;;;;;;;7.40;99.90;;;;;;5085918;28;20036;-68
2023/01/31 11:34:59;;;;;;;11.57;2.10;;;7.40;99.90;;;;;;5085582;28;20022;-68
2023/01/31 11:37:27;;;;;;;13.05;2.55;;;7.40;99.90;;;;;;5077507;28;20051;-68
2023/01/31 11:40:00;;;;;;;6.47;2.03;;;7.50;99.90;;;;;;5075459;28;20056;-68
2023/01/31 11:42:26;;;;;;;10.70;2.20;;;7.50;99.90;;;;;;5085220;28;20044;-68
2023/01/31 11:45:18;;;;;;;17.55;2.53;;;7.60;99.90;;;;;;5091966;28;20176;-68
2023/01/31 11:47:50;;;;;;;15.52;2.35;;;7.70;99.90;;;;;;5086328;28;20207;-68
2023/01/31 11:50:42;;;;;;;9.35;1.92;;;7.70;99.90;;;;;;5091718;28;20037;-68
2023/01/31 11:53:17;;;;;;;13.80;1.90;;;7.80;99.90;;;;;;5068465;28;20109;-68
2023/01/31 11:55:44;;;;;;;12.73;2.00;;;7.80;99.90;;;;;;5085560;28;20040;-69
2023/01/31 11:58:16;;;;;;;11.95;2.15;;;7.90;99.90;;;;;;5082507;28;20040;-68
2023/01/31 12:01:06;;;;;;;10.10;2.38;;;8.00;99.90;;;;;;5090010;28;20138;-68
2023/01/31 12:03:32;;;;;;;15.63;2.33;;;8.00;99.90;;;;;;5064294;28;20409;-68
2023/01/31 12:06:07;;;;;;;12.95;2.03;;;8.10;99.90;;;;;;5076095;28;20115;-68
2023/01/31 12:08:38;;;;;;;11.20;2.08;;;8.10;99.90;;;;;;5086835;28;20036;-68
2023/01/31 12:11:19;;;;;;;12.00;2.22;;;8.20;99.90;;;;;;5090900;28;20077;-68
2023/01/31 12:14:12;;;;;;;14.90;2.15;;;8.20;99.90;;;;;;5083302;28;20462;-68
2023/01/31 12:16:38;;;;;;;13.77;2.40;;;8.30;99.90;;;;;;5088563;28;20041;-68
2023/01/31 12:19:06;;;;;;;10.93;1.90;;;8.30;99.90;;;;;;5086640;28;20043;-68
2023/01/31 12:21:32;;;;;;;12.27;2.15;;;8.30;99.90;;;;;;5086690;28;20272;-68
2023/01/31 12:24:06;;;;;;;8.47;2.30;;;8.30;99.90;;;;;;5080329;28;20040;-68
2023/01/31 12:26:48;;;;;;;10.57;3.22;;;8.40;99.90;;;;;;5085240;28;20450;-68
2023/01/31 12:29:44;;;;;;;9.40;2.50;;;8.30;99.90;;;;;;5087851;28;20122;-68
2023/01/31 12:32:39;;;;;;;12.32;2.17;;;8.40;99.90;;;;;;5087118;28;20153;-69
2023/01/31 12:35:34;;;;;;;15.35;3.15;;;8.40;99.90;;;;;;5077489;28;20036;-68
2023/01/31 12:38:30;;;;;;;14.88;3.33;;;8.50;99.90;;;;;;5080762;28;20079;-68
2023/01/31 12:41:40;;;;;;;6.88;1.75;;;8.60;99.90;;;;;;5072618;28;20039;-68
2023/01/31 12:44:28;;;;;;;9.15;2.22;;;8.70;99.90;;;;;;5079183;28;20142;-69
2023/01/31 12:47:02;;;;;;;8.20;1.75;;;8.80;99.90;;;;;;5082273;28;20047;-68
2023/01/31 12:49:50;;;;;;;12.45;1.90;;;8.80;99.90;;;;;;5082100;28;20146;-68
2023/01/31 12:52:31;;;;;;;12.88;2.35;;;8.80;99.90;;;;;;5077359;28;20040;-68
2023/01/31 12:55:21;;;;;;;10.85;2.47;;;8.80;99.90;;;;;;5082170;28;20501;-68
2023/01/31 12:58:35;;;;;;;14.07;2.97;;;8.80;99.90;;;;;;5083223;28;20533;-69
2023/01/31 13:01:05;;;;;;;11.43;2.38;;;8.80;99.90;;;;;;5073727;28;20486;-69
2023/01/31 13:03:58;;;;;;;10.57;1.90;;;8.80;99.90;;;;;;5090833;28;20040;-68
2023/01/31 13:06:30;;;;;;;18.08;3.05;;;8.80;99.90;;;;;;5087275;28;20064;-68
2023/01/31 13:09:19;;;;;;;11.95;2.22;;;8.80;99.90;;;;;;5087234;28;20046;-68
2023/01/31 13:11:59;;;;;;;8.63;1.85;;;8.80;99.90;;;;;;5088360;28;20067;-68
2023/01/31 13:14:29;;;;;;;8.88;2.00;;;8.90;99.90;;;;;;5084064;28;20095;-68
2023/01/31 13:16:59;;;;;;;10.07;2.60;;;8.80;99.90;;;;;;5090150;28;20044;-68
2023/01/31 13:19:57;;;;;;;13.45;3.38;;;8.90;99.90;;;;;;5085184;28;20123;-68
2023/01/31 13:22:48;;;;;;;18.10;1.92;;;8.80;99.90;;;;;;5084963;28;20104;-68